createdAt,value
2018-02-27T00:00:53.849Z,34.27
2018-02-27T00:03:22.238Z,34.01
2018-02-27T00:05:50.651Z,33.98
2018-02-27T00:08:19.558Z,34.17
2018-02-27T00:10:48.925Z,34.36
2018-02-27T00:13:19.497Z,34.35
2018-02-27T00:15:49.482Z,34.25
2018-02-27T00:18:18.470Z,34.78
2018-02-27T00:20:46.942Z,34.55
2018-02-27T00:23:15.358Z,34.75
2018-02-27T00:25:44.170Z,33.92
2018-02-27T00:28:12.985Z,33.62
2018-02-27T00:30:43.273Z,33.62
2018-02-27T00:33:11.804Z,33.59
2018-02-27T00:35:40.223Z,34.17
2018-02-27T00:38:08.690Z,34.15
2018-02-27T00:40:37.524Z,34.51
2018-02-27T00:43:06.333Z,34.72
2018-02-27T00:45:35.088Z,34.59
2018-02-27T00:48:04.727Z,34.40
2018-02-27T00:50:33.161Z,35.11
2018-02-27T00:53:01.562Z,35.25
2018-02-27T00:55:31.968Z,35.62
2018-02-27T00:58:00.670Z,35.06
2018-02-27T01:00:31.058Z,35.32
2018-02-27T01:02:59.541Z,35.45
2018-02-27T01:05:27.943Z,35.81
2018-02-27T01:07:56.342Z,35.78
2018-02-27T01:10:25.496Z,35.36
2018-02-27T01:12:53.900Z,35.34
2018-02-27T01:15:22.308Z,35.30
2018-02-27T01:17:51.330Z,35.70
2018-02-27T01:20:20.786Z,35.55
2018-02-27T01:22:49.474Z,35.40
2018-02-27T01:25:18.049Z,35.57
2018-02-27T01:27:46.635Z,35.09
2018-02-27T01:30:15.110Z,35.76
2018-02-27T01:32:43.525Z,35.32
2018-02-27T01:35:12.775Z,35.05
2018-02-27T01:37:41.492Z,35.31
2018-02-27T01:40:10.455Z,35.25
2018-02-27T01:42:39.394Z,35.35
2018-02-27T01:45:07.885Z,34.95
2018-02-27T01:47:36.305Z,35.62
2018-02-27T01:50:04.943Z,35.80
2018-02-27T01:52:34.802Z,35.54
2018-02-27T01:55:04.112Z,35.62
2018-02-27T01:57:32.509Z,35.40
2018-02-27T02:00:00.927Z,35.58
2018-02-27T02:02:29.848Z,35.56
2018-02-27T02:04:58.322Z,35.87
2018-02-27T02:07:28.982Z,35.24
2018-02-27T02:09:59.641Z,35.48
2018-02-27T02:12:28.458Z,35.29
2018-02-27T02:14:56.864Z,35.02
2018-02-27T02:17:25.715Z,35.68
2018-02-27T02:19:54.143Z,35.34
2018-02-27T02:22:22.748Z,35.40
2018-02-27T02:24:51.259Z,35.95
2018-02-27T02:27:19.861Z,35.61
2018-02-27T02:29:48.298Z,35.27
2018-02-27T02:32:16.700Z,35.76
2018-02-27T02:34:45.167Z,35.63
2018-02-27T02:37:14.321Z,35.40
2018-02-27T02:39:42.720Z,35.73
2018-02-27T02:42:26.061Z,35.12
2018-02-27T02:44:55.625Z,35.09
2018-02-27T02:47:25.624Z,35.21
2018-02-27T02:49:54.029Z,34.77
2018-02-27T02:52:22.433Z,34.75
2018-02-27T02:54:51.557Z,34.49
2018-02-27T02:57:20.344Z,34.75
2018-02-27T02:59:49.149Z,34.75
2018-02-27T03:02:17.652Z,35.07
2018-02-27T03:04:46.135Z,35.06
2018-02-27T03:07:14.556Z,34.98
2018-02-27T03:09:42.973Z,34.92
2018-02-27T03:12:11.448Z,34.99
2018-02-27T03:14:40.440Z,34.65
2018-02-27T03:17:08.989Z,35.06
2018-02-27T03:19:37.903Z,35.15
2018-02-27T03:22:07.873Z,34.82
2018-02-27T03:24:36.293Z,34.76
2018-02-27T03:27:05.372Z,35.32
2018-02-27T03:29:33.821Z,35.43
2018-02-27T03:32:02.363Z,35.04
2018-02-27T03:34:30.787Z,34.92
2018-02-27T03:37:00.587Z,34.90
2018-02-27T03:39:29.014Z,34.76
2018-02-27T03:41:57.917Z,34.91
2018-02-27T03:44:26.323Z,34.86
2018-02-27T03:46:54.724Z,35.14
2018-02-27T03:49:24.428Z,34.88
2018-02-27T03:51:52.911Z,34.60
2018-02-27T03:54:21.957Z,34.60
2018-02-27T03:56:51.080Z,34.93
2018-02-27T03:59:19.491Z,34.45
2018-02-27T04:01:48.208Z,35.41
2018-02-27T04:04:17.722Z,35.63
2018-02-27T04:06:46.107Z,35.04
2018-02-27T04:09:14.544Z,34.77
2018-02-27T04:11:45.243Z,35.28
2018-02-27T04:14:14.566Z,35.13
2018-02-27T04:16:43.008Z,35.02
2018-02-27T04:19:11.391Z,35.08
2018-02-27T04:21:41.280Z,34.74
2018-02-27T04:24:09.719Z,35.36
2018-02-27T04:26:38.119Z,35.54
2018-02-27T04:29:06.856Z,36.12
2018-02-27T04:31:36.798Z,35.97
2018-02-27T04:34:05.650Z,36.04
2018-02-27T04:36:34.535Z,36.53
2018-02-27T04:39:03.320Z,36.11
2018-02-27T04:41:32.951Z,35.72
2018-02-27T04:44:01.355Z,35.84
2018-02-27T04:46:30.219Z,35.73
2018-02-27T04:48:58.650Z,35.87
2018-02-27T04:51:27.068Z,36.13
2018-02-27T04:53:55.881Z,35.63
2018-02-27T04:56:24.283Z,35.99
2018-02-27T04:58:52.718Z,35.92
2018-02-27T05:01:21.512Z,35.59
2018-02-27T05:03:51.730Z,35.94
2018-02-27T05:06:20.702Z,35.78
2018-02-27T05:08:49.106Z,35.92
2018-02-27T05:11:17.498Z,35.98
2018-02-27T05:13:46.307Z,36.31
2018-02-27T05:16:14.751Z,36.12
2018-02-27T05:18:43.938Z,36.02
2018-02-27T05:21:12.879Z,36.31
2018-02-27T05:23:41.903Z,36.21
2018-02-27T05:26:10.665Z,36.19
2018-02-27T05:28:39.088Z,36.39
2018-02-27T05:31:07.896Z,36.41
2018-02-27T05:33:36.310Z,36.37
2018-02-27T05:36:04.729Z,36.33
2018-02-27T05:38:33.653Z,37.21
2018-02-27T05:41:02.058Z,36.87
2018-02-27T05:43:32.034Z,37.11
2018-02-27T05:46:01.360Z,37.49
2018-02-27T05:48:30.555Z,37.36
2018-02-27T05:50:59.178Z,37.64
2018-02-27T05:53:27.643Z,37.74
2018-02-27T05:55:56.494Z,37.50
2018-02-27T05:58:25.299Z,37.25
2018-02-27T06:00:53.919Z,37.28
2018-02-27T06:03:22.978Z,37.34
2018-02-27T06:05:52.004Z,37.11
2018-02-27T06:08:20.396Z,36.46
2018-02-27T06:10:48.832Z,37.26
2018-02-27T06:13:17.328Z,36.31
2018-02-27T06:15:45.790Z,36.56
2018-02-27T06:18:14.697Z,36.30
2018-02-27T06:20:43.118Z,36.21
2018-02-27T06:23:12.856Z,35.43
2018-02-27T06:25:43.106Z,35.07
2018-02-27T06:28:11.510Z,35.46
2018-02-27T06:30:39.925Z,35.18
2018-02-27T06:33:08.586Z,34.59
2018-02-27T06:35:36.986Z,32.61
2018-02-27T06:38:05.821Z,31.64
2018-02-27T06:40:34.647Z,30.58
2018-02-27T06:43:03.112Z,29.69
2018-02-27T06:45:31.511Z,29.23
2018-02-27T06:48:00.213Z,27.22
2018-02-27T06:50:29.186Z,25.51
2018-02-27T06:52:58.034Z,23.43
2018-02-27T06:55:27.373Z,21.53
2018-02-27T06:57:55.750Z,20.44
2018-02-27T07:00:24.670Z,20.14
2018-02-27T07:02:53.616Z,20.12
2018-02-27T07:05:22.006Z,21.01
2018-02-27T07:07:50.616Z,20.97
2018-02-27T07:10:20.406Z,21.89
2018-02-27T07:12:48.780Z,21.71
2018-02-27T07:15:17.620Z,22.62
2018-02-27T07:17:45.998Z,23.20
2018-02-27T07:20:14.386Z,23.48
2018-02-27T07:22:43.125Z,22.95
2018-02-27T07:25:12.454Z,21.94
2018-02-27T07:27:41.255Z,21.90
2018-02-27T07:30:09.993Z,22.49
2018-02-27T07:32:38.587Z,21.91
2018-02-27T07:35:06.976Z,20.92
2018-02-27T07:37:36.076Z,19.41
2018-02-27T07:40:04.473Z,18.51
2018-02-27T07:42:33.253Z,17.82
2018-02-27T07:45:03.234Z,17.37
2018-02-27T07:47:31.634Z,16.38
2018-02-27T07:50:00.107Z,16.02
2018-02-27T07:52:28.484Z,15.04
2018-02-27T07:54:56.894Z,14.99
2018-02-27T07:57:25.257Z,15.57
2018-02-27T07:59:58.036Z,16.53
2018-02-27T08:02:26.827Z,16.47
2018-02-27T08:04:58.179Z,15.65
2018-02-27T08:07:26.953Z,14.61
2018-02-27T08:09:55.684Z,14.10
2018-02-27T08:12:24.677Z,13.11
2018-02-27T08:14:53.236Z,13.07
2018-02-27T08:17:21.616Z,12.49
2018-02-27T08:19:51.728Z,11.92
2018-02-27T08:22:21.474Z,11.93
2018-02-27T08:24:50.259Z,13.97
2018-02-27T08:27:19.049Z,14.53
2018-02-27T08:29:47.834Z,14.84
2018-02-27T08:32:16.708Z,14.94
2018-02-27T08:34:45.108Z,16.30
2018-02-27T08:37:14.078Z,17.39
2018-02-27T08:39:44.045Z,17.40
2018-02-27T08:42:13.784Z,18.59
2018-02-27T08:44:42.819Z,19.09
2018-02-27T08:47:11.891Z,19.02
2018-02-27T08:49:41.389Z,18.38
2018-02-27T08:52:09.766Z,18.17
2018-02-27T08:54:38.505Z,17.98
2018-02-27T08:57:07.889Z,18.29
2018-02-27T08:59:36.743Z,18.54
2018-02-27T09:02:05.092Z,18.90
2018-02-27T09:04:33.457Z,18.90
2018-02-27T09:07:01.812Z,18.34
2018-02-27T09:09:30.288Z,18.66
2018-02-27T09:11:59.040Z,18.25
2018-02-27T09:14:27.461Z,18.22
2018-02-27T09:16:56.228Z,17.72
2018-02-27T09:19:24.626Z,16.95
2018-02-27T09:21:52.996Z,16.61
2018-02-27T09:24:21.358Z,16.05
2018-02-27T09:26:49.706Z,15.71
2018-02-27T09:29:18.081Z,15.83
2018-02-27T09:31:46.442Z,15.20
2018-02-27T09:34:14.807Z,15.13
2018-02-27T09:36:43.200Z,14.34
2018-02-27T09:39:11.579Z,14.42
2018-02-27T09:41:39.975Z,13.56
2018-02-27T09:44:08.385Z,12.87
2018-02-27T09:46:36.738Z,13.53
2018-02-27T09:49:05.100Z,13.82
2018-02-27T09:51:33.478Z,13.89
2018-02-27T09:54:01.844Z,13.84
2018-02-27T09:56:30.225Z,13.77
2018-02-27T09:58:58.601Z,13.73
2018-02-27T10:01:27.355Z,13.12
2018-02-27T10:03:55.722Z,14.02
2018-02-27T10:06:24.088Z,13.04
2018-02-27T10:08:52.451Z,12.53
2018-02-27T10:11:20.803Z,12.30
2018-02-27T10:13:49.570Z,11.92
2018-02-27T10:16:17.931Z,13.04
2018-02-27T10:19:03.232Z,13.90
2018-02-27T10:21:31.976Z,14.92
2018-02-27T10:24:00.347Z,14.46
2018-02-27T10:26:28.704Z,14.14
2018-02-27T10:28:57.071Z,13.75
2018-02-27T10:31:25.449Z,14.31
2018-02-27T10:33:53.836Z,14.83
2018-02-27T10:36:22.216Z,15.17
2018-02-27T10:38:50.598Z,15.45
2018-02-27T10:41:18.980Z,15.07
2018-02-27T10:43:47.349Z,14.86
2018-02-27T10:46:17.179Z,15.32
2018-02-27T10:48:46.907Z,16.20
2018-02-27T10:51:15.475Z,16.40
2018-02-27T10:53:44.179Z,16.88
2018-02-27T10:56:12.953Z,16.93
2018-02-27T10:58:41.555Z,16.95
2018-02-27T11:01:15.814Z,16.50
2018-02-27T11:03:44.944Z,16.08
2018-02-27T11:06:13.403Z,15.96
2018-02-27T11:08:41.769Z,17.15
2018-02-27T11:11:10.516Z,17.65
2018-02-27T11:13:39.737Z,17.15
2018-02-27T11:16:08.120Z,17.81
2018-02-27T11:18:36.472Z,17.98
2018-02-27T11:21:04.816Z,17.48
2018-02-27T11:23:33.177Z,16.86
2018-02-27T11:26:01.923Z,16.86
2018-02-27T11:28:30.296Z,17.48
2018-02-27T11:30:58.643Z,17.66
2018-02-27T11:33:27.015Z,18.08
2018-02-27T11:35:56.682Z,18.78
2018-02-27T11:38:26.047Z,20.20
2018-02-27T11:40:54.616Z,20.33
2018-02-27T11:43:25.739Z,21.03
2018-02-27T11:45:54.242Z,21.42
2018-02-27T11:48:22.640Z,21.37
2018-02-27T11:50:50.992Z,21.66
2018-02-27T11:53:19.356Z,21.55
2018-02-27T11:55:48.096Z,22.43
2018-02-27T11:58:16.468Z,23.42
2018-02-27T12:00:44.820Z,24.02
2018-02-27T12:03:13.190Z,24.22
2018-02-27T12:05:41.544Z,24.79
2018-02-27T12:08:10.313Z,24.72
2018-02-27T12:10:38.663Z,24.15
2018-02-27T12:13:07.583Z,24.53
2018-02-27T12:15:35.930Z,23.84
2018-02-27T12:18:04.284Z,23.54
2018-02-27T12:20:33.571Z,23.97
2018-02-27T12:23:02.208Z,24.14
2018-02-27T12:25:31.577Z,23.74
2018-02-27T12:27:59.984Z,23.48
2018-02-27T12:30:28.335Z,23.40
2018-02-27T12:32:56.688Z,23.25
2018-02-27T12:35:25.436Z,24.16
2018-02-27T12:37:53.831Z,24.16
2018-02-27T12:40:22.180Z,24.29
2018-02-27T12:42:50.544Z,24.05
2018-02-27T12:45:18.896Z,23.63
2018-02-27T12:47:47.256Z,23.90
2018-02-27T12:50:16.002Z,23.90
2018-02-27T12:52:44.367Z,24.08
2018-02-27T12:55:12.738Z,24.29
2018-02-27T12:57:41.140Z,24.17
2018-02-27T13:00:09.512Z,24.17
2018-02-27T13:02:37.876Z,23.88
2018-02-27T13:05:06.238Z,24.42
2018-02-27T13:07:34.599Z,23.79
2018-02-27T13:10:03.346Z,24.02
2018-02-27T13:12:31.729Z,24.33
2018-02-27T13:15:00.096Z,24.40
2018-02-27T13:17:28.463Z,23.70
2018-02-27T13:19:56.831Z,23.83
2018-02-27T13:22:25.237Z,23.28
2018-02-27T13:24:53.595Z,23.38
2018-02-27T13:27:21.976Z,23.18
2018-02-27T13:29:50.323Z,24.07
2018-02-27T13:32:18.701Z,24.67
2018-02-27T13:34:47.462Z,24.45
2018-02-27T13:37:15.814Z,24.36
2018-02-27T13:39:44.175Z,24.66
2018-02-27T13:42:12.549Z,23.78
2018-02-27T13:44:40.901Z,23.45
2018-02-27T13:47:09.298Z,23.19
2018-02-27T13:49:37.673Z,22.87
2018-02-27T13:52:06.039Z,23.33
2018-02-27T13:54:34.392Z,23.49
2018-02-27T13:57:02.769Z,24.40
2018-02-27T13:59:31.524Z,24.41
2018-02-27T14:01:59.889Z,24.55
2018-02-27T14:04:28.250Z,24.51
2018-02-27T14:06:56.608Z,24.92
2018-02-27T14:09:25.360Z,25.36
2018-02-27T14:11:53.724Z,26.12
2018-02-27T14:14:22.092Z,26.65
2018-02-27T14:16:50.470Z,26.72
2018-02-27T14:19:18.850Z,26.82
2018-02-27T14:21:47.333Z,26.83
2018-02-27T14:24:15.810Z,26.28
2018-02-27T14:26:44.207Z,26.35
2018-02-27T14:29:12.567Z,27.43
2018-02-27T14:31:40.934Z,29.06
2018-02-27T14:34:09.300Z,29.09
2018-02-27T14:36:38.048Z,30.01
2018-02-27T14:39:06.413Z,30.51
2018-02-27T14:41:34.771Z,31.93
2018-02-27T14:44:03.157Z,32.04
2018-02-27T14:46:31.532Z,32.05
2018-02-27T14:48:59.893Z,32.07
2018-02-27T14:51:28.249Z,32.17
2018-02-27T14:53:56.991Z,32.76
2018-02-27T14:56:25.350Z,33.21
2018-02-27T14:58:53.712Z,32.13
2018-02-27T15:01:22.066Z,31.70
2018-02-27T15:03:50.811Z,30.91
2018-02-27T15:06:19.179Z,31.22
2018-02-27T15:08:47.530Z,32.02
2018-02-27T15:11:15.888Z,33.29
2018-02-27T15:13:44.739Z,33.42
2018-02-27T15:16:13.112Z,32.92
2018-02-27T15:18:41.473Z,33.13
2018-02-27T15:21:09.847Z,33.04
2018-02-27T15:23:38.191Z,32.92
2018-02-27T15:26:06.948Z,33.05
2018-02-27T15:28:35.320Z,32.29
2018-02-27T15:31:03.703Z,32.22
2018-02-27T15:33:32.061Z,33.01
2018-02-27T15:36:00.439Z,32.87
2018-02-27T15:38:28.814Z,32.96
2018-02-27T15:40:57.176Z,33.65
2018-02-27T15:43:25.551Z,34.41
2018-02-27T15:45:53.921Z,35.89
2018-02-27T15:48:22.692Z,36.00
2018-02-27T15:50:51.062Z,35.78
2018-02-27T15:53:19.410Z,38.00
2018-02-27T15:55:47.768Z,39.30
2018-02-27T15:58:16.165Z,38.06
2018-02-27T16:00:44.544Z,38.10
2018-02-27T16:03:12.928Z,37.33
2018-02-27T16:05:41.283Z,38.20
2018-02-27T16:08:09.659Z,37.56
2018-02-27T16:10:38.016Z,37.61
2018-02-27T16:13:07.078Z,38.12
2018-02-27T16:15:35.545Z,37.71
2018-02-27T16:18:03.981Z,37.90
2018-02-27T16:20:32.377Z,38.16
2018-02-27T16:23:00.743Z,38.23
2018-02-27T16:25:29.101Z,39.67
2018-02-27T16:27:57.862Z,40.09
2018-02-27T16:30:26.223Z,40.11
2018-02-27T16:32:54.578Z,40.96
2018-02-27T16:35:22.941Z,40.69
2018-02-27T16:37:51.292Z,40.07
2018-02-27T16:40:20.140Z,40.82
2018-02-27T16:42:48.504Z,41.80
2018-02-27T16:45:16.892Z,41.30
2018-02-27T16:47:45.263Z,41.15
2018-02-27T16:50:13.659Z,41.16
2018-02-27T16:52:42.025Z,40.94
2018-02-27T16:55:10.417Z,39.75
2018-02-27T16:57:38.803Z,40.20
2018-02-27T17:00:07.170Z,41.53
2018-02-27T17:02:35.553Z,41.85
2018-02-27T17:05:03.915Z,41.60
2018-02-27T17:07:32.315Z,41.74
2018-02-27T17:10:00.672Z,43.92
2018-02-27T17:12:29.052Z,45.96
2018-02-27T17:14:57.416Z,46.71
2018-02-27T17:17:25.822Z,47.51
2018-02-27T17:19:54.184Z,49.64
2018-02-27T17:22:22.596Z,49.80
2018-02-27T17:24:51.404Z,49.84
2018-02-27T17:27:20.208Z,51.86
2018-02-27T17:29:48.616Z,52.22
2018-02-27T17:32:17.033Z,50.54
2018-02-27T17:34:45.835Z,49.16
2018-02-27T17:37:14.240Z,48.60
2018-02-27T17:39:42.647Z,47.74
2018-02-27T17:42:11.056Z,47.03
2018-02-27T17:44:39.498Z,47.55
2018-02-27T17:47:07.893Z,49.14
2018-02-27T17:49:36.289Z,48.40
2018-02-27T17:52:05.112Z,48.16
2018-02-27T17:54:33.517Z,47.74
2018-02-27T17:57:01.923Z,46.90
2018-02-27T17:59:30.328Z,46.96
2018-02-27T18:01:59.141Z,46.94
2018-02-27T18:04:27.528Z,45.86
2018-02-27T18:06:55.980Z,46.67
2018-02-27T18:09:24.782Z,48.02
2018-02-27T18:11:53.235Z,47.54
2018-02-27T18:14:21.627Z,48.16
2018-02-27T18:16:50.425Z,47.38
2018-02-27T18:19:18.831Z,47.80
2018-02-27T18:21:47.258Z,47.08
2018-02-27T18:24:15.652Z,47.16
2018-02-27T18:26:44.463Z,46.95
2018-02-27T18:29:12.867Z,45.96
2018-02-27T18:31:41.274Z,46.32
2018-02-27T18:34:09.685Z,46.47
2018-02-27T18:36:38.494Z,45.65
2018-02-27T18:39:06.975Z,45.56
2018-02-27T18:41:35.398Z,46.21
2018-02-27T18:44:03.914Z,46.83
2018-02-27T18:46:32.622Z,46.42
2018-02-27T18:49:01.023Z,46.44
2018-02-27T18:51:29.444Z,46.47
2018-02-27T18:53:57.869Z,46.50
2018-02-27T18:56:26.294Z,46.67
2018-02-27T18:58:54.700Z,45.97
2018-02-27T19:01:23.495Z,45.60
2018-02-27T19:03:52.292Z,48.04
2018-02-27T19:06:20.695Z,48.42
2018-02-27T19:08:49.134Z,48.00
2018-02-27T19:11:17.555Z,48.03
2018-02-27T19:13:45.953Z,48.92
2018-02-27T19:16:14.395Z,47.50
2018-02-27T19:18:42.791Z,46.32
2018-02-27T19:21:11.230Z,46.65
2018-02-27T19:23:40.028Z,47.69
2018-02-27T19:26:08.837Z,47.43
2018-02-27T19:28:37.253Z,47.71
2018-02-27T19:31:05.699Z,47.54
2018-02-27T19:33:34.122Z,48.29
2018-02-27T19:36:02.542Z,48.75
2018-02-27T19:38:31.368Z,48.91
2018-02-27T19:40:59.777Z,49.11
2018-02-27T19:43:28.176Z,48.16
2018-02-27T19:45:56.573Z,47.52
2018-02-27T19:48:25.352Z,47.70
2018-02-27T19:50:54.141Z,48.25
2018-02-27T19:53:22.582Z,48.34
2018-02-27T19:55:50.981Z,48.73
2018-02-27T19:58:19.364Z,48.65
2018-02-27T20:00:47.779Z,49.71
2018-02-27T20:03:16.215Z,50.50
2018-02-27T20:05:44.616Z,50.15
2018-02-27T20:08:13.404Z,51.58
2018-02-27T20:10:42.231Z,52.29
2018-02-27T20:13:10.619Z,51.27
2018-02-27T20:15:39.042Z,51.28
2018-02-27T20:18:11.720Z,51.31
2018-02-27T20:20:40.125Z,51.09
2018-02-27T20:26:12.604Z,51.17
2018-02-27T20:28:46.971Z,49.75
2018-02-27T20:31:15.391Z,49.38
2018-02-27T20:33:43.892Z,49.61
2018-02-27T20:36:12.692Z,49.87
2018-02-27T20:38:46.617Z,51.11
2018-02-27T20:41:15.018Z,50.85
2018-02-27T20:43:43.412Z,50.06
2018-02-27T20:46:11.821Z,48.12
2018-02-27T20:48:40.685Z,47.75
2018-02-27T20:51:09.096Z,47.21
2018-02-27T20:53:37.883Z,46.06
2018-02-27T20:56:06.297Z,46.38
2018-02-27T20:58:34.732Z,45.84
2018-02-27T21:01:03.213Z,45.57
2018-02-27T21:03:32.020Z,46.21
2018-02-27T21:06:02.374Z,45.25
2018-02-27T21:08:30.979Z,45.25
2018-02-27T21:10:59.489Z,44.71
2018-02-27T21:13:27.890Z,44.26
2018-02-27T21:15:56.968Z,45.34
2018-02-27T21:18:25.774Z,45.02
2018-02-27T21:20:54.819Z,43.76
2018-02-27T21:23:23.344Z,43.25
2018-02-27T21:25:51.776Z,43.30
2018-02-27T21:28:20.627Z,42.91
2018-02-27T21:30:49.781Z,42.29
2018-02-27T21:33:18.196Z,41.66
2018-02-27T21:35:47.087Z,42.33
2018-02-27T21:38:18.521Z,43.03
2018-02-27T21:40:47.237Z,43.09
2018-02-27T21:43:15.636Z,43.28
2018-02-27T21:45:44.129Z,42.87
2018-02-27T21:48:12.549Z,42.51
2018-02-27T21:50:40.978Z,41.67
2018-02-27T21:53:09.429Z,42.43
2018-02-27T21:55:39.079Z,42.78
2018-02-27T21:58:07.731Z,42.69
2018-02-27T22:00:36.159Z,42.06
2018-02-27T22:03:04.950Z,41.99
2018-02-27T22:05:33.782Z,41.70
2018-02-27T22:08:02.670Z,40.81
2018-02-27T22:10:31.714Z,40.54
2018-02-27T22:13:01.286Z,39.58
2018-02-27T22:15:29.706Z,39.14
2018-02-27T22:17:58.507Z,39.48
2018-02-27T22:20:27.265Z,38.61
2018-02-27T22:22:55.700Z,38.28
2018-02-27T22:25:24.152Z,38.70
2018-02-27T22:27:52.556Z,39.46
2018-02-27T22:30:22.753Z,39.98
2018-02-27T22:32:51.158Z,40.50
2018-02-27T22:35:19.957Z,41.28
2018-02-27T22:37:48.752Z,40.86
2018-02-27T22:40:17.524Z,40.89
2018-02-27T22:42:46.327Z,42.33
2018-02-27T22:45:15.245Z,41.41
2018-02-27T22:47:43.697Z,41.14
2018-02-27T22:50:12.126Z,41.60
2018-02-27T22:52:40.668Z,42.45
2018-02-27T22:55:09.435Z,42.69
2018-02-27T22:57:38.259Z,42.43
2018-02-27T23:00:08.230Z,42.82
2018-02-27T23:02:37.568Z,43.22
2018-02-27T23:05:05.990Z,44.26
2018-02-27T23:07:34.394Z,43.71
2018-02-27T23:10:03.459Z,44.67
2018-02-27T23:12:31.949Z,43.53
2018-02-27T23:15:00.850Z,43.66
2018-02-27T23:17:30.265Z,44.91
2018-02-27T23:19:58.712Z,44.99
2018-02-27T23:22:27.140Z,43.68
2018-02-27T23:28:09.863Z,44.47
2018-02-27T23:30:40.939Z,44.59
2018-02-27T23:33:10.236Z,44.52
2018-02-27T23:35:40.022Z,44.23
2018-02-27T23:38:08.829Z,44.83
2018-02-27T23:40:38.258Z,45.08
2018-02-27T23:43:07.322Z,44.40
2018-02-27T23:45:36.491Z,45.11
2018-02-27T23:48:05.005Z,44.94
2018-02-27T23:50:33.717Z,45.09
2018-02-27T23:53:02.151Z,45.51
2018-02-27T23:55:31.065Z,45.73
2018-02-27T23:58:00.877Z,46.09
